createdAt,value
2022-07-26T00:00:19.939Z,43.81
2022-07-26T00:02:48.546Z,43.97
2022-07-26T00:05:17.168Z,43.94
2022-07-26T00:07:45.273Z,43.84
2022-07-26T00:10:13.484Z,44.16
2022-07-26T00:12:40.836Z,44.29
2022-07-26T00:15:10.125Z,44.29
2022-07-26T00:17:38.281Z,44.73
2022-07-26T00:20:06.409Z,44.26
2022-07-26T00:22:36.551Z,44.95
2022-07-26T00:25:07.168Z,45.24
2022-07-26T00:27:37.187Z,45.23
2022-07-26T00:30:07.318Z,45.30
2022-07-26T00:32:34.546Z,45.57
2022-07-26T00:35:01.728Z,45.89
2022-07-26T00:37:29.163Z,45.73
2022-07-26T00:39:56.295Z,46.00
2022-07-26T00:42:23.392Z,45.03
2022-07-26T00:44:50.773Z,44.06
2022-07-26T00:47:18.211Z,44.24
2022-07-26T00:49:45.759Z,44.80
2022-07-26T00:52:13.516Z,43.68
2022-07-26T00:54:43.931Z,43.53
2022-07-26T00:57:12.000Z,43.42
2022-07-26T00:59:40.098Z,42.93
2022-07-26T01:02:09.156Z,42.49
2022-07-26T01:04:36.736Z,42.79
2022-07-26T01:07:15.447Z,42.97
2022-07-26T01:09:43.267Z,42.68
2022-07-26T01:12:11.290Z,42.57
2022-07-26T01:14:38.438Z,42.65
2022-07-26T01:17:05.603Z,42.52
2022-07-26T01:19:33.004Z,42.46
2022-07-26T01:22:00.142Z,42.75
2022-07-26T01:24:27.309Z,42.66
2022-07-26T01:26:57.577Z,42.74
2022-07-26T01:29:34.595Z,42.69
2022-07-26T01:32:05.061Z,42.69
2022-07-26T01:34:32.784Z,42.39
2022-07-26T01:36:59.989Z,42.60
2022-07-26T01:39:27.377Z,42.53
2022-07-26T01:41:54.672Z,42.96
2022-07-26T01:44:23.011Z,43.25
2022-07-26T01:46:50.573Z,43.38
2022-07-26T01:49:17.894Z,43.65
2022-07-26T01:51:45.060Z,43.76
2022-07-26T01:54:12.934Z,44.00
2022-07-26T01:56:40.062Z,44.18
2022-07-26T01:59:07.661Z,44.69
2022-07-26T02:01:38.388Z,44.96
2022-07-26T02:04:09.194Z,44.80
2022-07-26T02:06:37.342Z,44.97
2022-07-26T02:09:07.463Z,45.15
2022-07-26T02:11:35.050Z,45.09
2022-07-26T02:14:03.244Z,45.19
2022-07-26T02:16:30.351Z,45.89
2022-07-26T02:18:57.811Z,46.10
2022-07-26T02:21:24.862Z,46.68
2022-07-26T02:23:51.911Z,47.10
2022-07-26T02:26:19.257Z,47.52
2022-07-26T02:28:46.313Z,47.02
2022-07-26T02:31:15.538Z,46.86
2022-07-26T02:33:43.142Z,48.11
2022-07-26T02:36:10.196Z,48.24
2022-07-26T02:38:37.381Z,48.30
2022-07-26T02:41:06.296Z,48.39
2022-07-26T02:43:33.458Z,48.38
2022-07-26T02:46:01.636Z,48.60
2022-07-26T02:48:32.735Z,49.06
2022-07-26T02:51:00.073Z,48.71
2022-07-26T02:53:27.257Z,48.74
2022-07-26T02:55:54.609Z,48.84
2022-07-26T02:58:21.791Z,49.20
2022-07-26T03:00:48.964Z,49.28
2022-07-26T03:03:16.549Z,49.68
2022-07-26T03:05:43.631Z,50.20
2022-07-26T03:08:10.802Z,50.35
2022-07-26T03:10:38.902Z,50.35
2022-07-26T03:13:05.964Z,51.10
2022-07-26T03:15:33.069Z,50.81
2022-07-26T03:18:00.652Z,51.11
2022-07-26T03:20:27.816Z,51.35
2022-07-26T03:22:55.028Z,51.63
2022-07-26T03:25:22.481Z,51.92
2022-07-26T03:27:49.579Z,51.84
2022-07-26T03:30:16.718Z,51.58
2022-07-26T03:32:52.511Z,50.99
2022-07-26T03:35:19.613Z,50.47
2022-07-26T03:37:46.833Z,50.23
2022-07-26T03:40:18.248Z,49.73
2022-07-26T03:42:47.026Z,49.72
2022-07-26T03:45:15.551Z,49.29
2022-07-26T03:47:43.204Z,48.89
2022-07-26T03:50:11.266Z,48.60
2022-07-26T03:52:38.633Z,48.36
2022-07-26T03:55:26.859Z,47.72
2022-07-26T03:57:54.263Z,47.65
2022-07-26T04:00:21.402Z,47.14
2022-07-26T04:02:48.907Z,46.94
2022-07-26T04:05:16.008Z,47.04
2022-07-26T04:07:53.099Z,48.11
2022-07-26T04:10:22.232Z,47.14
2022-07-26T04:12:50.299Z,47.38
2022-07-26T04:15:19.170Z,46.15
2022-07-26T04:17:48.333Z,44.41
2022-07-26T04:20:16.736Z,43.95
2022-07-26T04:22:44.987Z,43.41
2022-07-26T04:25:12.221Z,43.48
2022-07-26T04:27:39.607Z,44.37
2022-07-26T04:30:14.011Z,45.41
2022-07-26T04:32:43.568Z,46.85
2022-07-26T04:35:12.952Z,46.54
2022-07-26T04:37:41.346Z,43.39
2022-07-26T04:40:10.155Z,44.20
2022-07-26T04:42:39.161Z,44.09
2022-07-26T04:45:08.572Z,44.20
2022-07-26T04:47:36.613Z,43.35
2022-07-26T04:50:04.802Z,43.06
2022-07-26T04:52:31.861Z,42.92
2022-07-26T04:55:01.249Z,43.17
2022-07-26T04:57:28.292Z,42.94
2022-07-26T05:00:16.716Z,42.66
2022-07-26T05:02:42.877Z,42.12
2022-07-26T05:05:10.034Z,41.82
2022-07-26T05:07:45.200Z,41.65
2022-07-26T05:10:13.894Z,41.99
2022-07-26T05:12:41.206Z,42.93
2022-07-26T05:15:13.989Z,43.63
2022-07-26T05:17:43.020Z,44.26
2022-07-26T05:20:12.675Z,44.07
2022-07-26T05:22:39.731Z,44.04
2022-07-26T05:25:08.476Z,44.43
2022-07-26T05:27:35.843Z,45.17
2022-07-26T05:30:03.516Z,45.81
2022-07-26T05:32:30.859Z,46.90
2022-07-26T05:34:57.919Z,47.53
2022-07-26T05:37:24.992Z,47.52
2022-07-26T05:39:52.399Z,47.40
2022-07-26T05:42:19.555Z,47.60
2022-07-26T05:44:46.636Z,48.23
2022-07-26T05:47:14.109Z,48.93
2022-07-26T05:49:41.198Z,49.21
2022-07-26T05:52:09.185Z,50.49
2022-07-26T05:54:36.986Z,51.09
2022-07-26T05:57:04.405Z,51.67
2022-07-26T05:59:31.724Z,52.00
2022-07-26T06:01:59.409Z,52.04
2022-07-26T06:04:27.507Z,52.31
2022-07-26T06:06:55.412Z,52.33
2022-07-26T06:09:27.093Z,52.40
2022-07-26T06:11:54.726Z,52.89
2022-07-26T06:14:22.720Z,53.22
2022-07-26T06:16:50.867Z,52.82
2022-07-26T06:19:18.291Z,54.18
2022-07-26T06:21:46.161Z,54.82
2022-07-26T06:24:13.804Z,55.09
2022-07-26T06:26:41.219Z,55.26
2022-07-26T06:29:08.332Z,54.84
2022-07-26T06:31:35.572Z,54.71
2022-07-26T06:34:03.045Z,54.36
2022-07-26T06:36:31.220Z,54.03
2022-07-26T06:38:59.048Z,54.97
2022-07-26T06:41:26.448Z,54.56
2022-07-26T06:43:53.632Z,55.95
2022-07-26T06:46:21.331Z,56.05
2022-07-26T06:48:53.002Z,55.35
2022-07-26T06:51:20.268Z,54.48
2022-07-26T06:53:47.354Z,55.68
2022-07-26T06:56:17.575Z,55.54
2022-07-26T06:58:45.015Z,55.53
2022-07-26T07:01:12.202Z,54.75
2022-07-26T07:03:39.734Z,53.77
2022-07-26T07:06:07.022Z,54.25
2022-07-26T07:08:34.476Z,53.26
2022-07-26T07:11:02.447Z,53.53
2022-07-26T07:13:30.873Z,53.21
2022-07-26T07:15:58.511Z,53.25
2022-07-26T07:18:25.888Z,53.01
2022-07-26T07:20:52.941Z,52.74
2022-07-26T07:23:22.508Z,52.87
2022-07-26T07:25:50.672Z,52.50
2022-07-26T07:28:18.563Z,52.69
2022-07-26T07:30:47.529Z,52.72
2022-07-26T07:33:22.308Z,51.80
2022-07-26T07:35:51.933Z,51.29
2022-07-26T07:38:19.352Z,51.23
2022-07-26T07:40:46.410Z,50.68
2022-07-26T07:43:13.453Z,50.61
2022-07-26T07:45:40.859Z,51.09
2022-07-26T07:48:07.951Z,51.87
2022-07-26T07:50:35.177Z,52.62
2022-07-26T07:53:02.542Z,52.96
2022-07-26T07:55:41.171Z,53.18
2022-07-26T07:58:11.895Z,53.92
2022-07-26T08:00:39.064Z,54.70
2022-07-26T08:03:08.417Z,54.31
2022-07-26T08:05:35.679Z,53.71
2022-07-26T08:08:08.164Z,53.01
2022-07-26T08:10:35.811Z,52.63
2022-07-26T08:13:09.298Z,52.92
2022-07-26T08:15:39.125Z,53.98
2022-07-26T08:18:06.541Z,53.51
2022-07-26T08:20:36.104Z,52.53
2022-07-26T08:23:04.023Z,52.40
2022-07-26T08:26:01.873Z,52.50
2022-07-26T08:28:51.160Z,53.36
2022-07-26T08:31:47.076Z,52.87
2022-07-26T08:34:34.333Z,52.58
2022-07-26T08:37:21.213Z,52.48
2022-07-26T08:40:08.689Z,52.67
2022-07-26T08:42:56.966Z,52.85
2022-07-26T08:45:45.746Z,52.27
2022-07-26T08:48:36.937Z,52.20
2022-07-26T08:51:26.490Z,51.62
2022-07-26T08:54:14.962Z,53.14
2022-07-26T08:57:02.179Z,52.46
2022-07-26T09:00:18.149Z,51.51
2022-07-26T09:02:45.834Z,52.38
2022-07-26T09:05:13.584Z,54.07
2022-07-26T09:07:41.449Z,53.88
2022-07-26T09:10:10.929Z,54.53
2022-07-26T09:12:38.807Z,54.73
2022-07-26T09:15:08.875Z,55.45
2022-07-26T09:17:41.615Z,55.81
2022-07-26T09:20:17.919Z,56.22
2022-07-26T09:23:03.582Z,57.32
2022-07-26T09:25:39.513Z,57.79
2022-07-26T09:28:28.610Z,58.42
2022-07-26T09:31:00.029Z,58.96
2022-07-26T09:33:43.930Z,60.07
2022-07-26T09:36:11.527Z,60.67
2022-07-26T09:38:44.708Z,61.38
2022-07-26T09:41:19.256Z,61.36
2022-07-26T09:43:51.568Z,62.03
2022-07-26T09:46:21.780Z,64.51
2022-07-26T09:49:19.343Z,74.04
2022-07-26T09:51:47.939Z,81.40
2022-07-26T09:54:33.057Z,91.90
2022-07-26T09:57:01.233Z,96.69
2022-07-26T09:59:29.403Z,100.00
2022-07-26T10:01:58.811Z,100.00
2022-07-26T10:04:26.844Z,100.00
2022-07-26T10:06:54.035Z,100.00
2022-07-26T10:09:23.686Z,100.00
2022-07-26T10:11:55.911Z,100.00
2022-07-26T10:14:36.119Z,100.00
2022-07-26T10:17:29.273Z,100.00
2022-07-26T10:20:01.744Z,100.00
2022-07-26T10:22:43.811Z,100.00
2022-07-26T10:25:17.063Z,100.00
2022-07-26T10:27:48.375Z,100.00
2022-07-26T10:30:18.627Z,100.00
2022-07-26T10:32:58.689Z,100.00
2022-07-26T10:35:34.834Z,100.00
2022-07-26T10:38:13.431Z,100.00
2022-07-26T10:41:06.122Z,100.00
2022-07-26T10:43:42.634Z,100.00
2022-07-26T10:46:15.944Z,100.00
2022-07-26T10:49:09.300Z,100.00
2022-07-26T10:51:39.050Z,100.00
2022-07-26T10:54:11.832Z,100.00
2022-07-26T10:56:39.613Z,100.00
2022-07-26T10:59:07.456Z,100.00
2022-07-26T11:01:35.691Z,100.00
2022-07-26T11:04:03.020Z,100.00
2022-07-26T11:06:30.876Z,100.00
2022-07-26T11:08:57.960Z,100.00
2022-07-26T11:11:32.733Z,100.00
2022-07-26T11:14:11.339Z,100.00
2022-07-26T11:16:56.868Z,100.00
2022-07-26T11:19:25.927Z,100.00
2022-07-26T11:21:59.039Z,97.53
2022-07-26T11:24:27.049Z,97.10
2022-07-26T11:26:55.063Z,96.97
2022-07-26T11:29:38.821Z,97.07
2022-07-26T11:32:20.451Z,97.36
2022-07-26T11:35:02.327Z,96.36
2022-07-26T11:37:30.013Z,94.67
2022-07-26T11:39:57.521Z,90.57
2022-07-26T11:42:24.583Z,90.49
2022-07-26T11:44:53.972Z,89.90
2022-07-26T11:47:26.292Z,91.46
2022-07-26T11:50:12.887Z,90.92
2022-07-26T11:52:41.338Z,91.51
2022-07-26T11:55:09.276Z,93.68
2022-07-26T11:57:36.451Z,92.40
2022-07-26T12:00:04.925Z,93.65
2022-07-26T12:02:38.530Z,93.20
2022-07-26T12:05:21.292Z,93.49
2022-07-26T12:07:59.127Z,93.69
2022-07-26T12:10:27.712Z,93.45
2022-07-26T12:13:16.503Z,91.55
2022-07-26T12:15:52.174Z,91.74
2022-07-26T12:18:37.650Z,90.31
2022-07-26T12:21:08.440Z,87.72
2022-07-26T12:23:46.237Z,86.13
2022-07-26T12:26:22.544Z,84.34
2022-07-26T12:28:49.709Z,85.34
2022-07-26T12:31:43.284Z,83.29
2022-07-26T12:34:10.714Z,85.99
2022-07-26T12:36:38.480Z,85.57
2022-07-26T12:39:05.982Z,86.82
2022-07-26T12:41:36.793Z,87.00
2022-07-26T12:44:11.612Z,87.03
2022-07-26T12:46:39.504Z,85.95
2022-07-26T12:49:06.991Z,85.85
2022-07-26T12:51:34.298Z,87.26
2022-07-26T12:54:01.576Z,87.58
2022-07-26T12:56:29.294Z,85.88
2022-07-26T12:59:01.221Z,85.25
2022-07-26T13:01:30.129Z,83.67
2022-07-26T13:03:57.595Z,82.96
2022-07-26T13:06:24.754Z,81.95
2022-07-26T13:08:52.122Z,81.54
2022-07-26T13:11:19.233Z,77.73
2022-07-26T13:13:46.343Z,76.30
2022-07-26T13:16:13.738Z,74.62
2022-07-26T13:18:40.800Z,74.42
2022-07-26T13:21:08.100Z,75.43
2022-07-26T13:23:35.831Z,76.74
2022-07-26T13:26:03.715Z,75.00
2022-07-26T13:28:31.536Z,74.01
2022-07-26T13:30:59.063Z,71.99
2022-07-26T13:33:26.184Z,72.39
2022-07-26T13:35:53.306Z,72.48
2022-07-26T13:38:23.232Z,70.11
2022-07-26T13:40:53.168Z,66.44
2022-07-26T13:43:20.539Z,64.96
2022-07-26T13:45:47.624Z,64.72
2022-07-26T13:48:15.129Z,64.28
2022-07-26T13:50:42.543Z,65.61
2022-07-26T13:53:09.724Z,66.92
2022-07-26T13:55:36.808Z,68.17
2022-07-26T13:58:09.702Z,69.56
2022-07-26T14:00:37.526Z,70.17
2022-07-26T14:03:04.957Z,71.50
2022-07-26T14:05:32.093Z,69.93
2022-07-26T14:07:59.222Z,68.24
2022-07-26T14:10:26.634Z,65.62
2022-07-26T14:12:53.782Z,66.07
2022-07-26T14:15:23.000Z,66.83
2022-07-26T14:17:52.477Z,66.21
2022-07-26T14:20:21.020Z,65.11
2022-07-26T14:22:49.265Z,67.09
2022-07-26T14:25:16.643Z,68.29
2022-07-26T14:27:43.684Z,68.91
2022-07-26T14:30:11.268Z,69.63
2022-07-26T14:32:38.741Z,69.63
2022-07-26T14:35:06.515Z,70.30
2022-07-26T14:37:42.814Z,72.36
2022-07-26T14:40:13.863Z,73.01
2022-07-26T14:42:41.025Z,72.53
2022-07-26T14:45:09.712Z,72.75
2022-07-26T14:47:37.587Z,73.21
2022-07-26T14:50:07.115Z,74.52
2022-07-26T14:52:38.137Z,73.86
2022-07-26T14:55:06.520Z,74.61
2022-07-26T14:57:38.136Z,74.04
2022-07-26T15:00:12.433Z,74.15
2022-07-26T15:02:41.058Z,74.29
2022-07-26T15:05:09.767Z,72.92
2022-07-26T15:07:37.153Z,72.87
2022-07-26T15:10:05.759Z,72.44
2022-07-26T15:12:33.181Z,73.21
2022-07-26T15:15:00.327Z,73.37
2022-07-26T15:17:27.433Z,74.49
2022-07-26T15:19:54.946Z,73.67
2022-07-26T15:22:22.370Z,73.43
2022-07-26T15:24:49.561Z,73.23
2022-07-26T15:27:16.977Z,72.44
2022-07-26T15:29:44.630Z,72.31
2022-07-26T15:32:11.772Z,72.54
2022-07-26T15:34:39.194Z,72.18
2022-07-26T15:37:06.281Z,71.85
2022-07-26T15:39:33.317Z,72.17
2022-07-26T15:42:05.834Z,72.31
2022-07-26T15:44:37.557Z,71.94
2022-07-26T15:47:05.141Z,71.83
2022-07-26T15:49:32.527Z,73.26
2022-07-26T15:52:00.101Z,72.92
2022-07-26T15:54:27.459Z,72.28
2022-07-26T15:56:54.706Z,71.74
2022-07-26T15:59:21.844Z,70.80
2022-07-26T16:01:49.304Z,71.23
2022-07-26T16:04:16.796Z,71.33
2022-07-26T16:06:43.859Z,70.93
2022-07-26T16:09:17.717Z,71.10
2022-07-26T16:11:46.919Z,70.79
2022-07-26T16:14:14.364Z,71.40
2022-07-26T16:16:41.494Z,71.46
2022-07-26T16:19:09.741Z,72.12
2022-07-26T16:21:37.661Z,72.20
2022-07-26T16:24:07.551Z,70.95
2022-07-26T16:26:36.295Z,71.06
2022-07-26T16:29:04.235Z,71.42
2022-07-26T16:31:31.751Z,71.00
2022-07-26T16:33:59.251Z,70.73
2022-07-26T16:36:26.356Z,70.75
2022-07-26T16:38:53.442Z,70.32
2022-07-26T16:41:21.870Z,68.96
2022-07-26T16:43:48.964Z,67.86
2022-07-26T16:46:16.089Z,67.96
2022-07-26T16:48:46.568Z,66.86
2022-07-26T16:51:13.779Z,67.39
2022-07-26T16:53:41.212Z,68.45
2022-07-26T16:56:09.069Z,67.83
2022-07-26T16:58:37.668Z,67.82
2022-07-26T17:01:04.832Z,65.40
2022-07-26T17:03:32.250Z,64.27
2022-07-26T17:06:04.313Z,63.68
2022-07-26T17:08:34.443Z,64.29
2022-07-26T17:11:01.750Z,64.45
2022-07-26T17:13:28.822Z,66.91
2022-07-26T17:15:56.273Z,68.06
2022-07-26T17:18:23.549Z,69.28
2022-07-26T17:20:50.858Z,70.25
2022-07-26T17:23:21.265Z,70.95
2022-07-26T17:25:48.394Z,72.13
2022-07-26T17:28:15.486Z,72.71
2022-07-26T17:30:42.987Z,73.24
2022-07-26T17:33:10.659Z,73.89
2022-07-26T17:35:37.854Z,73.72
2022-07-26T17:38:05.251Z,73.70
2022-07-26T17:40:33.732Z,73.51
2022-07-26T17:43:01.022Z,73.89
2022-07-26T17:45:28.404Z,73.62
2022-07-26T17:47:55.513Z,73.07
2022-07-26T17:50:38.790Z,72.34
2022-07-26T17:53:06.382Z,71.73
2022-07-26T17:55:33.778Z,71.90
2022-07-26T17:58:00.919Z,72.58
2022-07-26T18:00:29.282Z,71.86
2022-07-26T18:02:57.521Z,71.69
2022-07-26T18:05:31.713Z,70.57
2022-07-26T18:08:01.606Z,69.92
2022-07-26T18:10:29.207Z,69.91
2022-07-26T18:12:56.436Z,70.57
2022-07-26T18:15:24.037Z,71.06
2022-07-26T18:17:51.104Z,71.78
2022-07-26T18:20:18.195Z,72.10
2022-07-26T18:22:47.068Z,72.66
2022-07-26T18:25:17.441Z,73.09
2022-07-26T18:27:44.533Z,73.68
2022-07-26T18:30:12.131Z,73.89
2022-07-26T18:32:39.182Z,74.96
2022-07-26T18:35:06.585Z,75.40
2022-07-26T18:37:34.006Z,75.75
2022-07-26T18:40:01.162Z,76.37
2022-07-26T18:42:28.198Z,76.80
2022-07-26T18:44:58.425Z,77.20
2022-07-26T18:47:25.630Z,77.46
2022-07-26T18:49:52.697Z,77.93
2022-07-26T18:52:31.904Z,78.40
2022-07-26T18:55:18.762Z,78.75
2022-07-26T18:57:46.214Z,79.43
2022-07-26T19:00:17.056Z,79.96
2022-07-26T19:02:45.389Z,80.17
2022-07-26T19:05:14.253Z,80.40
2022-07-26T19:07:41.439Z,80.82
2022-07-26T19:10:09.835Z,81.00
2022-07-26T19:12:37.471Z,81.72
2022-07-26T19:15:06.417Z,82.10
2022-07-26T19:17:33.585Z,82.12
2022-07-26T19:20:01.047Z,82.53
2022-07-26T19:22:29.254Z,83.10
2022-07-26T19:24:57.359Z,83.60
2022-07-26T19:27:25.044Z,84.09
2022-07-26T19:29:52.091Z,84.70
2022-07-26T19:32:19.234Z,85.05
2022-07-26T19:34:46.585Z,85.43
2022-07-26T19:37:19.825Z,85.88
2022-07-26T19:39:48.856Z,86.06
2022-07-26T19:42:16.508Z,86.34
2022-07-26T19:44:43.701Z,86.46
2022-07-26T19:47:14.225Z,86.77
2022-07-26T19:49:41.373Z,86.96
2022-07-26T19:52:11.705Z,87.26
2022-07-26T19:54:39.773Z,87.58
2022-07-26T19:57:07.815Z,87.92
2022-07-26T19:59:35.091Z,88.34
2022-07-26T20:02:02.917Z,88.74
2022-07-26T20:04:30.440Z,89.01
2022-07-26T20:06:57.530Z,89.76
2022-07-26T20:09:24.681Z,90.47
2022-07-26T20:11:52.062Z,90.80
2022-07-26T20:14:20.131Z,91.58
2022-07-26T20:16:50.561Z,92.21
2022-07-26T20:19:21.563Z,92.65
2022-07-26T20:21:48.632Z,93.16
2022-07-26T20:24:15.726Z,93.04
2022-07-26T20:26:43.090Z,93.65
2022-07-26T20:29:11.483Z,94.44
2022-07-26T20:31:38.971Z,94.99
2022-07-26T20:34:06.391Z,95.67
2022-07-26T20:36:33.563Z,96.16
2022-07-26T20:39:01.073Z,96.83
2022-07-26T20:41:28.631Z,97.60
2022-07-26T20:44:01.221Z,97.57
2022-07-26T20:46:28.748Z,97.79
2022-07-26T20:48:56.109Z,98.22
2022-07-26T20:51:23.422Z,98.09
2022-07-26T20:53:50.803Z,98.40
2022-07-26T20:56:17.864Z,97.83
2022-07-26T20:58:44.915Z,98.19
2022-07-26T21:01:13.142Z,97.99
2022-07-26T21:03:40.392Z,97.47
2022-07-26T21:06:07.431Z,97.27
2022-07-26T21:08:35.119Z,97.05
2022-07-26T21:11:02.264Z,97.33
2022-07-26T21:13:29.360Z,97.17
2022-07-26T21:15:56.774Z,97.14
2022-07-26T21:18:25.847Z,96.97
2022-07-26T21:20:53.278Z,96.81
2022-07-26T21:23:22.977Z,96.91
2022-07-26T21:25:50.053Z,97.05
2022-07-26T21:28:25.614Z,97.43
2022-07-26T21:30:52.687Z,97.66
2022-07-26T21:33:19.780Z,97.66
2022-07-26T21:35:47.192Z,97.90
2022-07-26T21:38:14.264Z,98.32
2022-07-26T21:40:41.372Z,98.52
2022-07-26T21:43:08.807Z,98.52
2022-07-26T21:45:35.998Z,98.41
2022-07-26T21:48:03.553Z,98.28
2022-07-26T21:50:31.103Z,97.73
2022-07-26T21:52:58.548Z,97.25
2022-07-26T21:55:25.646Z,97.52
2022-07-26T21:57:53.048Z,97.48
2022-07-26T22:00:20.273Z,97.37
2022-07-26T22:02:47.735Z,97.33
2022-07-26T22:05:33.716Z,97.42
2022-07-26T22:08:02.146Z,98.03
2022-07-26T22:10:29.194Z,98.41
2022-07-26T22:12:56.243Z,98.54
2022-07-26T22:15:23.574Z,98.17
2022-07-26T22:17:50.798Z,98.42
2022-07-26T22:20:17.902Z,98.57
2022-07-26T22:22:45.269Z,98.88
2022-07-26T22:25:12.595Z,99.64
2022-07-26T22:27:39.656Z,99.86
2022-07-26T22:30:08.015Z,99.66
2022-07-26T22:32:35.138Z,99.80
2022-07-26T22:35:02.238Z,100.00
2022-07-26T22:37:29.631Z,100.00
2022-07-26T22:39:56.714Z,100.00
2022-07-26T22:42:23.806Z,100.00
2022-07-26T22:44:51.192Z,100.00
2022-07-26T22:47:18.310Z,100.00
2022-07-26T22:49:45.469Z,100.00
2022-07-26T22:52:12.968Z,100.00
2022-07-26T22:54:40.034Z,100.00
2022-07-26T22:57:07.124Z,100.00
2022-07-26T22:59:34.562Z,100.00
2022-07-26T23:02:01.699Z,100.00
2022-07-26T23:04:28.831Z,100.00
2022-07-26T23:06:56.187Z,100.00
2022-07-26T23:09:25.802Z,100.00
2022-07-26T23:11:52.854Z,100.00
2022-07-26T23:14:20.240Z,100.00
2022-07-26T23:16:47.371Z,100.00
2022-07-26T23:19:14.768Z,100.00
2022-07-26T23:21:42.517Z,100.00
2022-07-26T23:24:09.674Z,99.70
2022-07-26T23:26:37.224Z,99.09
2022-07-26T23:29:05.117Z,99.23
2022-07-26T23:31:32.391Z,99.29
2022-07-26T23:33:59.762Z,99.24
2022-07-26T23:36:28.782Z,99.34
2022-07-26T23:38:59.644Z,99.83
2022-07-26T23:41:28.298Z,99.95
2022-07-26T23:43:55.655Z,100.00
2022-07-26T23:46:23.363Z,100.00
2022-07-26T23:48:51.330Z,100.00
2022-07-26T23:51:19.572Z,100.00
2022-07-26T23:53:47.306Z,100.00
2022-07-26T23:56:15.493Z,99.95
2022-07-26T23:58:42.701Z,98.96
